Time;durP1;ratioP1;P1;durP2;ratioP2;P2;SDS_P1;SDS_P2;PMS_P1;PMS_P2;Temp;Humidity;BMP_temperature;BMP_pressure;BME280_temperature;BME280_humidity;BME280_pressure;Samples;Min_cycle;Max_cycle;Signal;HPM_P1;HPM_P2
2023/09/29 00:00:17;;;;;;;18.77;5.63;;;15.90;99.90;;;;;;5069680;28;20040;-68
2023/09/29 00:02:44;;;;;;;18.90;5.10;;;15.90;99.90;;;;;;5068974;28;20051;-68
2023/09/29 00:05:15;;;;;;;12.73;3.53;;;15.80;99.90;;;;;;5067556;28;20037;-68
2023/09/29 00:07:42;;;;;;;13.35;3.60;;;15.80;99.90;;;;;;5064844;28;20076;-68
2023/09/29 00:10:09;;;;;;;13.70;5.32;;;15.80;99.90;;;;;;4999633;28;20069;-68
2023/09/29 00:12:37;;;;;;;12.13;4.45;;;15.80;99.90;;;;;;5063472;28;20051;-68
2023/09/29 00:15:06;;;;;;;16.77;4.88;;;15.80;99.90;;;;;;4999408;28;20164;-68
2023/09/29 00:17:32;;;;;;;14.50;4.47;;;15.80;99.90;;;;;;5053823;28;20061;-68
2023/09/29 00:20:10;;;;;;;15.38;5.35;;;15.80;99.90;;;;;;5000605;28;20453;-68
2023/09/29 00:22:37;;;;;;;11.82;4.30;;;15.80;99.90;;;;;;5067205;28;20054;-68
2023/09/29 00:25:04;;;;;;;18.35;4.80;;;15.90;99.90;;;;;;5067785;28;20132;-68
2023/09/29 00:27:30;;;;;;;20.88;4.97;;;15.80;99.90;;;;;;4996158;28;20038;-68
2023/09/29 00:29:56;;;;;;;16.42;5.07;;;15.90;99.90;;;;;;5032099;28;20129;-68
2023/09/29 00:32:21;;;;;;;15.32;4.40;;;15.90;99.90;;;;;;5000923;28;20145;-68
2023/09/29 00:34:47;;;;;;;16.40;5.03;;;15.90;99.90;;;;;;4998863;28;20042;-68
2023/09/29 00:37:13;;;;;;;15.48;4.85;;;15.90;99.90;;;;;;5065307;28;20129;-68
2023/09/29 00:39:38;;;;;;;20.50;4.38;;;15.90;99.90;;;;;;5000923;28;20041;-68
2023/09/29 00:42:06;;;;;;;17.70;4.28;;;15.90;99.90;;;;;;4998595;28;20049;-68
2023/09/29 00:44:35;;;;;;;16.50;4.13;;;15.80;99.90;;;;;;5063576;28;20053;-68
2023/09/29 00:47:01;;;;;;;14.40;3.90;;;15.90;99.90;;;;;;5065141;28;20045;-68
2023/09/29 00:49:29;;;;;;;16.90;4.63;;;15.90;99.90;;;;;;5047412;28;20070;-68
2023/09/29 00:51:59;;;;;;;19.73;5.32;;;15.90;99.90;;;;;;4998631;28;20038;-68
2023/09/29 00:54:30;;;;;;;19.65;5.75;;;16.00;99.90;;;;;;5065544;28;20054;-68
2023/09/29 00:56:59;;;;;;;18.20;3.63;;;15.90;99.90;;;;;;4998118;28;20046;-68
2023/09/29 00:59:26;;;;;;;21.35;5.15;;;15.90;99.90;;;;;;5066012;28;20042;-68
2023/09/29 01:01:52;;;;;;;15.40;4.45;;;15.90;99.90;;;;;;5000819;28;20428;-68
2023/09/29 01:04:18;;;;;;;20.20;4.85;;;15.90;99.90;;;;;;4999755;28;20041;-68
2023/09/29 01:06:45;;;;;;;20.10;4.72;;;15.90;99.90;;;;;;5069485;28;20046;-68
2023/09/29 01:09:11;;;;;;;11.18;3.17;;;15.90;99.90;;;;;;5067044;28;20082;-68
2023/09/29 01:11:43;;;;;;;15.45;4.20;;;15.90;99.90;;;;;;5003220;28;20050;-68
2023/09/29 01:14:13;;;;;;;14.73;4.32;;;15.90;99.90;;;;;;5000668;28;20400;-68
2023/09/29 01:16:40;;;;;;;16.45;4.75;;;15.90;99.90;;;;;;5066275;28;20057;-68
2023/09/29 01:19:16;;;;;;;21.33;4.13;;;15.80;99.90;;;;;;4998079;28;20088;-68
2023/09/29 01:21:44;;;;;;;12.77;3.70;;;15.80;99.90;;;;;;5000276;28;20056;-68
2023/09/29 01:24:10;;;;;;;18.92;3.97;;;15.80;99.90;;;;;;4997654;28;20049;-68
2023/09/29 01:26:36;;;;;;;15.10;3.92;;;15.90;99.90;;;;;;5070515;28;20495;-68
2023/09/29 01:29:02;;;;;;;15.27;4.00;;;15.80;99.90;;;;;;5002905;28;20042;-68
2023/09/29 01:31:28;;;;;;;14.10;4.18;;;15.90;99.90;;;;;;5069131;28;20033;-68
2023/09/29 01:33:54;;;;;;;16.83;4.22;;;15.90;99.90;;;;;;5071786;28;20091;-68
2023/09/29 01:36:20;;;;;;;15.25;3.83;;;15.90;99.90;;;;;;5002677;28;20042;-68
2023/09/29 01:38:46;;;;;;;16.58;4.50;;;15.80;99.90;;;;;;5067568;28;20065;-68
2023/09/29 01:41:13;;;;;;;18.83;5.03;;;15.90;99.90;;;;;;5004398;28;20034;-68
2023/09/29 01:43:39;;;;;;;17.73;4.30;;;15.80;99.90;;;;;;5069383;28;20049;-68
2023/09/29 01:46:07;;;;;;;19.08;4.40;;;15.90;99.90;;;;;;5069782;28;20130;-68
2023/09/29 01:48:33;;;;;;;12.82;3.90;;;15.90;99.90;;;;;;5066731;28;20943;-68
2023/09/29 01:51:02;;;;;;;13.35;4.00;;;15.90;99.90;;;;;;5001722;28;20039;-68
2023/09/29 01:53:30;;;;;;;20.48;4.40;;;15.90;99.90;;;;;;5001631;28;20037;-68
2023/09/29 01:55:56;;;;;;;15.07;4.43;;;15.90;99.90;;;;;;5071604;28;20112;-68
2023/09/29 01:58:23;;;;;;;11.88;4.30;;;15.90;99.90;;;;;;5068467;28;20061;-68
2023/09/29 02:00:49;;;;;;;18.08;5.90;;;16.00;99.90;;;;;;5065858;28;20056;-68
2023/09/29 02:03:16;;;;;;;16.85;4.68;;;15.90;99.90;;;;;;5070784;28;20378;-68
2023/09/29 02:05:42;;;;;;;12.52;4.28;;;16.00;99.90;;;;;;5069029;28;20049;-68
2023/09/29 02:08:09;;;;;;;12.95;4.00;;;16.00;99.90;;;;;;5055256;28;20135;-68
2023/09/29 02:10:36;;;;;;;12.70;4.70;;;16.00;99.90;;;;;;5069792;28;20400;-68
2023/09/29 02:13:07;;;;;;;15.70;4.65;;;16.00;99.90;;;;;;5069489;28;20437;-68
2023/09/29 02:15:34;;;;;;;11.65;4.90;;;16.00;99.90;;;;;;5003797;28;20132;-68
2023/09/29 02:18:06;;;;;;;14.18;3.85;;;16.00;99.90;;;;;;5068477;28;20499;-68
2023/09/29 02:20:32;;;;;;;19.52;3.58;;;16.10;99.90;;;;;;5068410;28;20041;-68
2023/09/29 02:22:59;;;;;;;11.07;3.42;;;16.10;99.90;;;;;;5071433;28;20824;-68
2023/09/29 02:25:28;;;;;;;16.20;4.40;;;16.10;99.90;;;;;;5071435;28;20053;-68
2023/09/29 02:27:57;;;;;;;18.23;4.43;;;16.10;99.90;;;;;;5074653;28;20046;-68
2023/09/29 02:30:24;;;;;;;13.80;3.70;;;16.10;99.90;;;;;;5005252;28;20042;-68
2023/09/29 02:32:53;;;;;;;11.75;3.75;;;16.10;99.90;;;;;;5069200;28;20052;-68
2023/09/29 02:35:20;;;;;;;16.77;4.13;;;16.20;99.90;;;;;;5071714;28;20050;-68
2023/09/29 02:37:46;;;;;;;12.32;3.75;;;16.20;99.90;;;;;;5069339;28;20498;-68
2023/09/29 02:40:13;;;;;;;12.52;3.42;;;16.10;99.90;;;;;;5066751;28;20120;-68
2023/09/29 02:42:39;;;;;;;12.85;3.85;;;16.20;99.90;;;;;;5067516;28;20063;-68
2023/09/29 02:45:06;;;;;;;12.68;3.95;;;16.20;99.90;;;;;;5070751;28;20054;-68
2023/09/29 02:47:32;;;;;;;15.35;4.93;;;16.20;99.90;;;;;;5071125;28;20057;-68
2023/09/29 02:49:58;;;;;;;13.93;4.10;;;16.20;99.90;;;;;;4999751;28;20026;-68
2023/09/29 02:52:25;;;;;;;14.10;3.85;;;16.20;99.90;;;;;;5069103;28;20091;-68
2023/09/29 02:54:50;;;;;;;15.13;4.68;;;16.20;99.90;;;;;;5066528;28;20048;-68
2023/09/29 02:57:16;;;;;;;12.20;3.92;;;16.20;99.90;;;;;;4998269;28;20113;-68
2023/09/29 02:59:44;;;;;;;15.05;4.30;;;16.30;99.90;;;;;;4999860;28;20041;-68
2023/09/29 03:02:10;;;;;;;11.57;3.75;;;16.30;99.90;;;;;;5065657;28;20042;-68
2023/09/29 03:04:36;;;;;;;16.10;5.15;;;16.20;99.90;;;;;;5066897;28;20037;-68
2023/09/29 03:07:02;;;;;;;9.88;3.63;;;16.30;99.90;;;;;;5001877;28;20053;-68
2023/09/29 03:09:29;;;;;;;12.80;4.50;;;16.30;99.90;;;;;;5000348;28;20042;-68
2023/09/29 03:11:54;;;;;;;13.43;4.55;;;16.30;99.90;;;;;;5002363;28;20046;-68
2023/09/29 03:14:21;;;;;;;9.80;3.22;;;16.30;99.90;;;;;;5068101;28;20150;-68
2023/09/29 03:16:46;;;;;;;10.90;4.10;;;16.40;99.90;;;;;;5000256;28;20106;-68
2023/09/29 03:19:12;;;;;;;14.50;4.13;;;16.30;99.90;;;;;;5066177;28;20045;-68
2023/09/29 03:21:38;;;;;;;12.18;2.97;;;16.40;99.90;;;;;;5067923;28;20042;-68
2023/09/29 03:24:03;;;;;;;14.57;4.40;;;16.40;99.90;;;;;;5070634;28;20174;-68
2023/09/29 03:26:31;;;;;;;10.38;2.95;;;16.40;99.90;;;;;;5063841;28;20038;-68
2023/09/29 03:28:57;;;;;;;8.65;3.15;;;16.60;99.90;;;;;;4999593;28;20604;-68
2023/09/29 03:31:23;;;;;;;11.15;3.72;;;16.40;99.90;;;;;;4996283;28;20065;-68
2023/09/29 03:33:49;;;;;;;13.18;3.30;;;16.40;99.90;;;;;;5067039;28;20081;-68
2023/09/29 03:36:20;;;;;;;18.65;3.95;;;16.40;99.90;;;;;;5066071;28;20046;-68
2023/09/29 03:38:46;;;;;;;11.48;3.13;;;16.50;99.90;;;;;;4998520;28;20827;-68
2023/09/29 03:41:12;;;;;;;13.23;4.60;;;16.50;99.90;;;;;;4998173;28;20095;-68
2023/09/29 03:43:38;;;;;;;16.83;4.15;;;16.50;99.90;;;;;;5066392;28;20052;-68
2023/09/29 03:46:04;;;;;;;15.18;4.50;;;16.50;99.90;;;;;;5068495;28;20048;-68
2023/09/29 03:48:30;;;;;;;14.60;5.18;;;16.50;99.90;;;;;;5065889;28;20117;-68
2023/09/29 03:50:57;;;;;;;10.93;4.50;;;16.60;99.90;;;;;;5072318;28;20544;-68
2023/09/29 03:53:28;;;;;;;11.60;3.92;;;16.50;99.90;;;;;;5066032;28;20052;-68
2023/09/29 03:55:57;;;;;;;11.93;4.07;;;16.50;99.90;;;;;;5069653;28;20042;-68
2023/09/29 03:58:24;;;;;;;10.48;4.03;;;16.50;99.90;;;;;;5067675;28;20046;-68
2023/09/29 04:00:49;;;;;;;15.45;4.22;;;16.50;99.90;;;;;;5065496;28;20041;-68
2023/09/29 04:03:16;;;;;;;11.80;3.38;;;16.60;99.90;;;;;;5061556;28;20408;-68
2023/09/29 04:05:41;;;;;;;18.52;5.00;;;16.60;99.90;;;;;;5000171;28;20091;-68
2023/09/29 04:08:07;;;;;;;10.50;3.92;;;16.60;99.90;;;;;;5063576;28;21498;-68
2023/09/29 04:10:33;;;;;;;13.25;4.07;;;16.60;99.90;;;;;;4996977;28;20041;-68
2023/09/29 04:12:59;;;;;;;16.42;4.25;;;16.60;99.90;;;;;;5071900;28;20034;-68
2023/09/29 04:15:25;;;;;;;9.07;3.30;;;16.60;99.90;;;;;;5068297;28;20038;-68
2023/09/29 04:17:51;;;;;;;14.88;4.40;;;16.70;99.90;;;;;;5065181;28;20041;-68
2023/09/29 04:20:17;;;;;;;14.90;3.80;;;16.60;99.90;;;;;;4997212;28;20505;-68
2023/09/29 04:22:43;;;;;;;11.55;4.32;;;16.60;99.90;;;;;;5068419;28;20042;-68
2023/09/29 04:25:09;;;;;;;15.27;5.03;;;16.60;99.90;;;;;;4999102;28;20498;-68
2023/09/29 04:27:35;;;;;;;14.55;4.25;;;16.70;99.90;;;;;;4999503;28;20656;-68
2023/09/29 04:30:04;;;;;;;14.65;5.30;;;16.70;99.90;;;;;;5067698;28;20488;-68
2023/09/29 04:32:29;;;;;;;16.80;4.43;;;16.70;99.90;;;;;;5060972;28;20225;-68
2023/09/29 04:34:55;;;;;;;13.38;4.47;;;16.70;99.90;;;;;;5060136;28;20129;-68
2023/09/29 04:37:21;;;;;;;17.50;5.40;;;16.80;99.90;;;;;;4994278;28;20034;-68
2023/09/29 04:39:46;;;;;;;11.30;4.13;;;16.80;99.90;;;;;;5060052;28;20038;-68
2023/09/29 04:42:12;;;;;;;14.60;5.32;;;16.80;99.90;;;;;;4997866;28;20046;-68
2023/09/29 04:44:38;;;;;;;10.55;4.80;;;16.80;99.90;;;;;;5062918;28;20053;-68
2023/09/29 04:47:04;;;;;;;14.10;5.43;;;16.90;99.90;;;;;;4994982;28;20042;-68
2023/09/29 04:49:30;;;;;;;16.10;6.07;;;16.80;99.90;;;;;;5063171;28;20146;-68
2023/09/29 04:51:55;;;;;;;14.57;5.50;;;16.90;99.90;;;;;;4997424;28;20448;-68
2023/09/29 04:54:21;;;;;;;17.40;5.60;;;16.80;99.90;;;;;;5066669;28;20521;-68
2023/09/29 04:56:46;;;;;;;12.80;5.35;;;16.80;99.90;;;;;;4998273;28;20050;-68
2023/09/29 04:59:12;;;;;;;15.45;6.22;;;16.90;99.90;;;;;;5063198;28;20057;-69
2023/09/29 05:01:37;;;;;;;14.75;5.63;;;16.90;99.90;;;;;;5065217;28;20053;-68
2023/09/29 05:04:03;;;;;;;12.13;4.80;;;16.90;99.90;;;;;;4996803;28;20060;-68
2023/09/29 05:06:29;;;;;;;11.82;5.22;;;16.90;99.90;;;;;;4996703;28;20038;-68
2023/09/29 05:08:55;;;;;;;16.00;6.10;;;16.90;99.90;;;;;;4998368;28;20037;-68
2023/09/29 05:11:22;;;;;;;11.30;5.35;;;16.90;99.90;;;;;;5002579;28;20034;-68
2023/09/29 05:13:49;;;;;;;14.02;6.05;;;16.90;99.90;;;;;;5061616;28;20042;-68
2023/09/29 05:16:15;;;;;;;13.15;5.60;;;16.90;99.90;;;;;;5001529;28;20863;-68
2023/09/29 05:18:41;;;;;;;15.73;5.78;;;16.90;99.90;;;;;;5062477;28;20053;-68
2023/09/29 05:21:07;;;;;;;13.43;5.60;;;16.90;99.90;;;;;;5064271;28;20068;-68
2023/09/29 05:23:32;;;;;;;15.25;6.03;;;16.90;99.90;;;;;;4995982;28;20431;-69
2023/09/29 05:26:02;;;;;;;14.35;5.72;;;16.90;99.90;;;;;;5063495;28;20058;-68
2023/09/29 05:28:28;;;;;;;11.18;4.35;;;16.90;99.90;;;;;;5061832;28;20050;-68
2023/09/29 05:30:54;;;;;;;11.25;5.05;;;16.90;99.90;;;;;;4996551;28;20041;-68
2023/09/29 05:33:20;;;;;;;12.68;5.38;;;16.90;99.90;;;;;;5048278;28;20080;-68
2023/09/29 05:35:48;;;;;;;12.68;5.20;;;16.90;99.90;;;;;;5047102;28;20133;-68
2023/09/29 05:38:13;;;;;;;14.82;4.88;;;16.90;99.90;;;;;;4995227;28;20038;-68
2023/09/29 05:40:39;;;;;;;8.73;4.47;;;17.00;99.90;;;;;;5063527;28;20506;-67
2023/09/29 05:43:10;;;;;;;7.22;4.82;;;17.00;99.90;;;;;;5063595;28;20042;-68
2023/09/29 05:45:36;;;;;;;11.40;4.85;;;17.00;99.90;;;;;;5065319;28;20049;-67
2023/09/29 05:48:03;;;;;;;13.90;4.47;;;17.00;99.90;;;;;;5061732;28;20050;-68
2023/09/29 05:50:28;;;;;;;12.40;6.15;;;17.10;99.90;;;;;;4998205;28;20121;-67
2023/09/29 05:52:56;;;;;;;11.98;4.20;;;17.10;99.90;;;;;;5052944;28;20125;-68
2023/09/29 05:55:22;;;;;;;10.93;4.32;;;17.10;99.90;;;;;;5063986;28;20110;-67
2023/09/29 05:57:48;;;;;;;13.40;4.25;;;17.10;99.90;;;;;;5063582;28;20050;-67
2023/09/29 06:00:13;;;;;;;8.88;4.13;;;17.10;99.90;;;;;;5061550;28;20483;-67
2023/09/29 06:02:42;;;;;;;12.80;4.15;;;17.10;99.90;;;;;;5065487;28;20039;-67
2023/09/29 06:05:08;;;;;;;12.38;3.67;;;17.10;99.90;;;;;;5002345;28;20512;-67
2023/09/29 06:07:34;;;;;;;8.38;4.13;;;17.10;99.90;;;;;;5068802;28;20038;-67
2023/09/29 06:10:00;;;;;;;10.55;3.88;;;17.10;99.90;;;;;;5067196;28;20031;-67
2023/09/29 06:12:26;;;;;;;13.52;4.53;;;17.10;99.90;;;;;;4999884;28;20116;-67
2023/09/29 06:14:51;;;;;;;9.10;4.07;;;17.10;99.90;;;;;;4999414;28;20054;-67
2023/09/29 06:17:17;;;;;;;9.05;4.15;;;17.10;99.90;;;;;;5064095;28;20038;-67
2023/09/29 06:19:43;;;;;;;9.10;4.53;;;17.20;99.90;;;;;;4999851;28;20030;-67
2023/09/29 06:22:08;;;;;;;11.57;4.68;;;17.10;99.90;;;;;;5001396;28;20070;-67
2023/09/29 06:24:34;;;;;;;7.43;3.83;;;17.20;99.90;;;;;;5068921;28;20053;-67
2023/09/29 06:27:00;;;;;;;7.10;3.58;;;17.20;99.90;;;;;;5067610;28;20083;-67
2023/09/29 06:29:25;;;;;;;13.35;4.40;;;17.20;99.90;;;;;;5067836;28;20045;-67
2023/09/29 06:31:52;;;;;;;8.38;4.63;;;17.20;99.90;;;;;;5066784;28;20049;-67
2023/09/29 06:34:18;;;;;;;7.50;4.35;;;17.20;99.90;;;;;;5069181;28;20049;-67
2023/09/29 06:36:44;;;;;;;10.60;4.75;;;17.30;99.90;;;;;;5065174;28;20404;-67
2023/09/29 06:39:09;;;;;;;10.50;4.78;;;17.30;99.90;;;;;;5068310;28;20453;-67
2023/09/29 06:41:37;;;;;;;9.40;4.65;;;17.30;99.90;;;;;;5070528;28;20065;-67
2023/09/29 06:44:02;;;;;;;8.82;3.78;;;17.30;99.90;;;;;;5085289;28;20512;-67
2023/09/29 06:46:28;;;;;;;8.55;3.95;;;17.30;99.90;;;;;;5002203;28;20192;-67
2023/09/29 06:48:53;;;;;;;8.95;4.50;;;17.30;99.90;;;;;;4997043;28;20034;-68
2023/09/29 06:51:19;;;;;;;6.40;3.53;;;17.30;99.90;;;;;;5068342;28;20053;-67
2023/09/29 06:53:45;;;;;;;7.90;3.53;;;17.30;99.90;;;;;;5002294;28;20043;-67
2023/09/29 06:56:10;;;;;;;13.30;4.13;;;17.30;99.90;;;;;;5069714;28;20045;-67
2023/09/29 06:58:36;;;;;;;9.82;4.10;;;17.40;99.90;;;;;;5001850;28;20057;-67
2023/09/29 07:01:02;;;;;;;7.38;3.25;;;17.40;99.90;;;;;;5000513;28;20034;-67
2023/09/29 07:03:31;;;;;;;6.43;3.35;;;17.40;99.90;;;;;;5067361;28;20050;-67
2023/09/29 07:06:01;;;;;;;5.50;3.40;;;17.50;99.90;;;;;;5062810;28;20488;-67
2023/09/29 07:08:27;;;;;;;8.90;3.53;;;17.50;99.90;;;;;;4998797;28;20053;-66
2023/09/29 07:10:53;;;;;;;5.72;3.40;;;17.50;99.90;;;;;;4996740;28;20038;-66
2023/09/29 07:13:18;;;;;;;5.88;3.00;;;17.50;99.90;;;;;;5063723;28;20388;-66
2023/09/29 07:15:47;;;;;;;7.65;2.90;;;17.60;99.90;;;;;;5000810;28;20048;-66
2023/09/29 07:18:13;;;;;;;4.53;1.98;;;17.60;99.90;;;;;;5005062;28;20034;-67
2023/09/29 07:20:39;;;;;;;8.02;3.05;;;17.60;99.90;;;;;;4995973;28;20548;-67
2023/09/29 07:23:08;;;;;;;6.20;3.22;;;17.60;99.90;;;;;;5064839;28;20046;-66
2023/09/29 07:25:34;;;;;;;6.32;3.00;;;17.70;99.90;;;;;;4991309;28;20053;-66
2023/09/29 07:27:59;;;;;;;4.95;2.67;;;17.70;99.90;;;;;;5064883;28;20038;-66
2023/09/29 07:30:25;;;;;;;7.53;2.65;;;17.70;99.90;;;;;;5066473;28;20507;-66
2023/09/29 07:32:51;;;;;;;7.25;2.80;;;17.70;99.90;;;;;;5000341;28;20566;-67
2023/09/29 07:35:18;;;;;;;8.75;3.20;;;17.80;99.90;;;;;;5067003;28;20038;-67
2023/09/29 07:37:44;;;;;;;5.72;2.55;;;17.80;99.90;;;;;;5062566;28;20121;-67
2023/09/29 07:40:10;;;;;;;4.50;2.65;;;17.80;99.90;;;;;;5065798;28;20383;-67
2023/09/29 07:42:36;;;;;;;3.92;2.63;;;17.90;99.90;;;;;;5004479;28;20032;-68
2023/09/29 07:45:01;;;;;;;4.25;2.38;;;17.90;99.90;;;;;;5063125;28;20091;-67
2023/09/29 07:47:27;;;;;;;6.07;2.50;;;18.00;99.90;;;;;;5001295;28;20340;-66
2023/09/29 07:49:52;;;;;;;8.80;2.42;;;18.00;99.90;;;;;;4992559;28;20133;-66
2023/09/29 07:52:25;;;;;;;6.53;2.80;;;18.10;99.90;;;;;;5061751;28;20045;-66
2023/09/29 07:54:51;;;;;;;7.53;2.70;;;18.20;99.90;;;;;;5058983;28;20061;-66
2023/09/29 07:57:16;;;;;;;5.65;2.67;;;18.30;99.90;;;;;;4992903;28;20644;-66
2023/09/29 07:59:42;;;;;;;5.07;2.50;;;18.40;99.90;;;;;;5065638;28;20038;-67
2023/09/29 08:02:07;;;;;;;4.55;2.03;;;18.40;99.90;;;;;;4995457;28;20138;-67
2023/09/29 08:04:33;;;;;;;3.13;2.10;;;18.50;99.90;;;;;;5061085;28;20115;-67
2023/09/29 08:06:59;;;;;;;7.40;2.60;;;18.60;99.90;;;;;;4997457;28;20089;-67
2023/09/29 08:09:24;;;;;;;4.72;2.05;;;18.70;99.90;;;;;;5061397;28;20038;-67
2023/09/29 08:11:50;;;;;;;5.85;2.42;;;18.80;99.90;;;;;;5065610;28;20062;-67
2023/09/29 08:14:16;;;;;;;8.45;2.03;;;18.90;99.90;;;;;;5065361;28;20058;-67
2023/09/29 08:16:42;;;;;;;2.70;1.75;;;19.00;99.90;;;;;;4998653;28;20344;-67
2023/09/29 08:19:08;;;;;;;4.88;2.17;;;19.10;99.90;;;;;;5062039;28;20080;-67
2023/09/29 08:21:33;;;;;;;4.95;2.30;;;19.20;99.90;;;;;;5066535;28;20053;-67
2023/09/29 08:24:02;;;;;;;3.63;1.65;;;19.30;99.90;;;;;;5064356;28;20045;-67
2023/09/29 08:26:29;;;;;;;4.47;2.03;;;19.40;99.90;;;;;;5062055;28;20042;-67
2023/09/29 08:28:57;;;;;;;10.38;2.45;;;19.40;99.90;;;;;;5064160;28;20095;-67
2023/09/29 08:31:23;;;;;;;4.32;2.45;;;19.50;99.90;;;;;;4994709;28;20030;-67
2023/09/29 08:33:49;;;;;;;7.40;2.33;;;19.60;99.90;;;;;;5062530;28;20091;-67
2023/09/29 08:36:14;;;;;;;6.93;2.25;;;19.70;99.90;;;;;;4995047;28;20771;-67
2023/09/29 08:38:40;;;;;;;3.38;1.83;;;19.70;99.90;;;;;;5063630;28;20099;-67
2023/09/29 08:41:10;;;;;;;6.55;2.55;;;19.90;99.90;;;;;;5060566;28;20057;-67
2023/09/29 08:43:38;;;;;;;3.67;1.70;;;19.90;99.90;;;;;;5007169;28;20110;-68
2023/09/29 08:46:03;;;;;;;5.20;2.55;;;19.90;99.90;;;;;;4991010;28;20049;-67
2023/09/29 08:48:32;;;;;;;5.90;1.73;;;20.00;99.90;;;;;;5061826;28;20046;-67
2023/09/29 08:51:01;;;;;;;2.97;1.67;;;20.00;99.90;;;;;;4992998;28;20048;-67
2023/09/29 08:53:28;;;;;;;2.80;1.70;;;20.10;99.90;;;;;;4995358;28;20412;-67
2023/09/29 08:55:55;;;;;;;3.72;1.77;;;20.10;99.90;;;;;;5065168;28;20045;-67
2023/09/29 08:58:22;;;;;;;4.47;2.05;;;20.20;99.90;;;;;;4995384;28;20050;-67
2023/09/29 09:00:51;;;;;;;3.83;2.10;;;20.20;99.90;;;;;;5059601;28;20531;-67
2023/09/29 09:03:17;;;;;;;12.15;2.47;;;20.30;99.90;;;;;;4994987;28;20063;-67
2023/09/29 09:05:43;;;;;;;3.33;1.77;;;20.30;99.90;;;;;;5057694;28;20057;-67
2023/09/29 09:08:11;;;;;;;4.65;2.13;;;20.30;99.90;;;;;;4989587;28;20042;-68
2023/09/29 09:10:38;;;;;;;4.28;1.75;;;20.40;99.90;;;;;;4988713;28;20050;-67
2023/09/29 09:13:05;;;;;;;4.25;2.15;;;20.40;99.90;;;;;;4992192;28;20041;-67
2023/09/29 09:15:31;;;;;;;3.17;1.83;;;20.50;99.90;;;;;;5046211;28;20053;-67
2023/09/29 09:17:57;;;;;;;5.72;2.42;;;20.50;99.90;;;;;;5060037;28;20470;-67
2023/09/29 09:20:23;;;;;;;6.50;2.40;;;20.60;99.90;;;;;;5060762;28;20132;-67
2023/09/29 09:23:02;;;;;;;9.18;2.25;;;20.70;99.90;;;;;;5062826;28;20046;-66
2023/09/29 09:25:37;;;;;;;4.25;1.75;;;20.80;99.90;;;;;;4994562;28;21530;-67
2023/09/29 09:28:03;;;;;;;10.20;2.37;;;20.80;99.90;;;;;;5061424;28;20115;-67
2023/09/29 09:30:35;;;;;;;9.30;2.72;;;20.80;99.90;;;;;;5042534;28;20050;-67
2023/09/29 09:33:05;;;;;;;5.97;2.33;;;20.80;99.90;;;;;;5063508;28;20046;-66
2023/09/29 09:35:31;;;;;;;10.73;2.45;;;20.80;99.90;;;;;;4993144;28;20038;-66
2023/09/29 09:37:59;;;;;;;12.20;3.15;;;20.80;99.90;;;;;;4995013;28;20515;-67
2023/09/29 09:40:25;;;;;;;8.15;2.53;;;20.80;99.90;;;;;;4994743;28;20080;-66
2023/09/29 09:42:54;;;;;;;2.80;1.65;;;20.80;99.90;;;;;;5058376;28;20385;-66
2023/09/29 09:45:25;;;;;;;7.00;2.30;;;20.90;99.90;;;;;;5063545;28;20046;-67
2023/09/29 09:47:57;;;;;;;7.07;2.40;;;20.90;99.90;;;;;;5066197;28;20039;-67
2023/09/29 09:50:24;;;;;;;10.23;2.42;;;20.90;99.90;;;;;;4998585;28;20053;-67
2023/09/29 09:52:53;;;;;;;10.88;2.65;;;20.80;99.90;;;;;;5066583;28;20069;-67
2023/09/29 09:55:19;;;;;;;4.75;1.95;;;20.90;99.90;;;;;;5063915;28;20034;-66
2023/09/29 09:57:50;;;;;;;4.80;2.00;;;21.00;99.90;;;;;;4998700;28;20091;-66
2023/09/29 10:00:15;;;;;;;4.32;1.98;;;21.10;99.90;;;;;;4997814;28;20038;-67
2023/09/29 10:02:52;;;;;;;9.02;2.72;;;21.20;99.90;;;;;;5065305;28;20663;-67
2023/09/29 10:05:30;;;;;;;7.43;2.65;;;21.20;99.90;;;;;;5063416;28;20041;-67
2023/09/29 10:08:01;;;;;;;17.63;2.88;;;21.20;99.90;;;;;;5066509;28;20050;-66
2023/09/29 10:10:36;;;;;;;7.82;2.95;;;21.10;99.90;;;;;;5066649;28;20087;-66
2023/09/29 10:13:03;;;;;;;8.63;2.22;;;21.10;99.90;;;;;;4998427;28;20042;-66
2023/09/29 10:15:29;;;;;;;3.95;2.03;;;21.00;99.90;;;;;;5066267;28;20046;-67
2023/09/29 10:18:17;;;;;;;6.63;2.15;;;21.00;99.90;;;;;;5064862;28;20075;-67
2023/09/29 10:20:43;;;;;;;4.07;2.28;;;21.00;99.90;;;;;;5004514;28;20060;-66
2023/09/29 10:23:15;;;;;;;10.32;2.33;;;21.00;99.90;;;;;;5066181;28;20540;-66
2023/09/29 10:25:59;;;;;;;8.63;2.20;;;20.90;99.90;;;;;;5065950;28;20114;-66
2023/09/29 10:28:35;;;;;;;5.10;2.00;;;20.90;99.90;;;;;;5062950;28;20046;-66
2023/09/29 10:31:13;;;;;;;8.50;2.35;;;20.90;99.90;;;;;;5061809;28;20037;-66
2023/09/29 10:33:52;;;;;;;8.75;2.45;;;20.80;99.90;;;;;;5063357;28;20837;-66
2023/09/29 10:36:20;;;;;;;5.38;2.17;;;20.70;99.90;;;;;;5063134;28;20081;-67
2023/09/29 10:38:47;;;;;;;4.22;2.33;;;20.70;99.90;;;;;;5063915;28;20050;-67
2023/09/29 10:41:15;;;;;;;5.05;1.95;;;20.60;99.90;;;;;;5064691;28;20076;-67
2023/09/29 10:43:43;;;;;;;4.40;2.20;;;20.50;99.90;;;;;;5058310;28;20884;-66
2023/09/29 10:46:09;;;;;;;4.20;2.35;;;20.50;99.90;;;;;;4991228;28;20046;-67
2023/09/29 10:48:55;;;;;;;7.78;2.72;;;20.50;99.90;;;;;;5039591;28;20676;-66
2023/09/29 10:51:25;;;;;;;4.75;2.80;;;20.40;99.90;;;;;;4993357;28;20058;-66
2023/09/29 10:53:52;;;;;;;5.45;2.63;;;20.40;99.90;;;;;;5058494;28;20052;-66
2023/09/29 10:56:23;;;;;;;6.18;2.63;;;20.40;99.90;;;;;;4993424;28;20099;-66
2023/09/29 10:58:53;;;;;;;6.38;2.88;;;20.50;99.90;;;;;;5057585;28;20480;-67
2023/09/29 11:01:27;;;;;;;6.35;2.20;;;20.60;99.90;;;;;;4989017;28;20088;-66
2023/09/29 11:03:56;;;;;;;5.82;2.22;;;20.60;99.90;;;;;;5061104;28;20046;-66
2023/09/29 11:06:22;;;;;;;7.75;2.05;;;20.70;99.90;;;;;;5061904;28;20074;-66
2023/09/29 11:08:54;;;;;;;8.73;2.30;;;20.70;99.90;;;;;;5057949;28;20050;-66
2023/09/29 11:11:20;;;;;;;4.95;2.00;;;20.70;99.90;;;;;;5054854;28;21770;-66
2023/09/29 11:13:56;;;;;;;7.93;2.70;;;20.70;99.90;;;;;;4997364;28;20030;-66
2023/09/29 11:16:25;;;;;;;6.18;2.60;;;20.70;99.90;;;;;;5061995;28;20098;-66
2023/09/29 11:18:55;;;;;;;5.07;2.00;;;20.60;99.90;;;;;;5065398;28;20503;-66
2023/09/29 11:21:34;;;;;;;6.13;2.40;;;20.60;99.90;;;;;;5078669;27;20117;-66
2023/09/29 11:24:05;;;;;;;6.57;1.98;;;20.60;99.90;;;;;;4997934;28;20049;-66
2023/09/29 11:26:31;;;;;;;6.97;2.42;;;20.60;99.90;;;;;;4993801;28;20050;-66
2023/09/29 11:28:58;;;;;;;5.65;2.65;;;20.50;99.90;;;;;;5062309;28;20046;-66
2023/09/29 11:31:24;;;;;;;5.10;2.50;;;20.50;99.90;;;;;;4993114;28;20034;-66
2023/09/29 11:33:51;;;;;;;5.50;2.38;;;20.50;99.90;;;;;;4994211;28;20080;-66
2023/09/29 11:36:25;;;;;;;5.28;2.80;;;20.40;99.90;;;;;;5061217;28;20063;-66
2023/09/29 11:38:51;;;;;;;6.43;2.77;;;20.40;99.90;;;;;;5062241;28;20045;-66
2023/09/29 11:41:17;;;;;;;5.32;2.20;;;20.30;99.90;;;;;;5066872;28;20054;-66
2023/09/29 11:43:45;;;;;;;6.22;2.72;;;20.40;99.90;;;;;;4995006;28;20042;-66
2023/09/29 11:46:13;;;;;;;6.10;3.35;;;20.30;99.90;;;;;;4996642;28;20124;-66
2023/09/29 11:48:40;;;;;;;6.68;3.10;;;20.40;99.90;;;;;;4991902;28;20072;-67
2023/09/29 11:51:08;;;;;;;8.35;3.08;;;20.40;99.90;;;;;;5065998;28;20138;-67
2023/09/29 11:53:34;;;;;;;6.38;2.90;;;20.40;99.90;;;;;;4997681;28;20126;-67
2023/09/29 11:56:00;;;;;;;4.20;2.90;;;20.50;99.90;;;;;;5061364;28;20161;-67
2023/09/29 11:58:26;;;;;;;4.22;2.47;;;20.60;99.90;;;;;;4994458;28;20073;-67
2023/09/29 12:00:52;;;;;;;4.45;2.47;;;20.70;99.90;;;;;;4997363;28;20042;-67
2023/09/29 12:03:21;;;;;;;8.68;2.70;;;20.80;99.90;;;;;;5065812;28;20053;-67
2023/09/29 12:05:49;;;;;;;6.53;2.15;;;20.90;99.90;;;;;;5065053;28;20050;-67
2023/09/29 12:08:16;;;;;;;3.92;2.50;;;21.00;99.90;;;;;;5062353;28;20041;-67
2023/09/29 12:10:42;;;;;;;5.28;3.10;;;21.10;99.90;;;;;;5062348;28;20424;-67
2023/09/29 12:13:10;;;;;;;3.47;2.17;;;21.00;99.90;;;;;;5061824;28;20622;-67
2023/09/29 12:15:36;;;;;;;5.15;2.75;;;20.90;99.90;;;;;;4997290;28;20050;-67
2023/09/29 12:18:01;;;;;;;5.95;2.75;;;21.00;99.90;;;;;;4998564;28;20077;-67
2023/09/29 12:20:28;;;;;;;5.55;2.78;;;21.00;99.90;;;;;;5001164;28;20065;-67
2023/09/29 12:22:55;;;;;;;9.93;3.00;;;20.90;99.90;;;;;;5066879;28;20104;-67
2023/09/29 12:25:21;;;;;;;5.07;3.00;;;20.90;99.90;;;;;;4998444;28;20380;-67
2023/09/29 12:27:50;;;;;;;5.93;3.47;;;20.90;99.90;;;;;;5066854;28;20134;-67
2023/09/29 12:30:17;;;;;;;6.45;3.33;;;20.80;99.90;;;;;;5062802;28;20132;-67
2023/09/29 12:32:44;;;;;;;5.55;3.35;;;20.70;99.90;;;;;;5049846;28;20053;-67
2023/09/29 12:35:13;;;;;;;5.88;4.38;;;20.70;99.90;;;;;;5058207;28;20546;-67
2023/09/29 12:37:43;;;;;;;9.80;4.13;;;20.60;99.90;;;;;;5067028;28;20056;-67
2023/09/29 12:40:10;;;;;;;13.48;4.32;;;20.50;99.90;;;;;;5063648;28;20042;-68